sensor_id;sensor_type;location;lat;lon;timestamp;pressure;altitude;pressure_sealevel;temperature;humidity
51313;BME280;37397;53.226;10.400;2023-09-08T00:01:46;101747.25;;;20.40;60.11
51313;BME280;37397;53.226;10.400;2023-09-08T00:04:13;101746.19;;;20.37;60.29
51313;BME280;37397;53.226;10.400;2023-09-08T00:06:41;101744.63;;;20.36;60.02
51313;BME280;37397;53.226;10.400;2023-09-08T00:09:08;101745.41;;;20.31;59.86
51313;BME280;37397;53.226;10.400;2023-09-08T00:11:34;101747.53;;;20.31;60.10
51313;BME280;37397;53.226;10.400;2023-09-08T00:14:01;101742.00;;;20.27;60.01
51313;BME280;37397;53.226;10.400;2023-09-08T00:16:29;101742.53;;;20.26;60.11
51313;BME280;37397;53.226;10.400;2023-09-08T00:18:57;101743.84;;;20.25;60.14
51313;BME280;37397;53.226;10.400;2023-09-08T00:21:26;101734.34;;;20.18;59.97
51313;BME280;37397;53.226;10.400;2023-09-08T00:23:53;101733.59;;;20.18;60.33
51313;BME280;37397;53.226;10.400;2023-09-08T00:26:20;101737.00;;;20.16;60.15
51313;BME280;37397;53.226;10.400;2023-09-08T00:28:47;101730.94;;;20.14;60.09
51313;BME280;37397;53.226;10.400;2023-09-08T00:31:14;101741.47;;;20.12;60.19
51313;BME280;37397;53.226;10.400;2023-09-08T00:33:40;101739.63;;;20.09;60.14
51313;BME280;37397;53.226;10.400;2023-09-08T00:36:10;101731.75;;;20.03;60.14
51313;BME280;37397;53.226;10.400;2023-09-08T00:38:38;101728.84;;;20.03;59.98
51313;BME280;37397;53.226;10.400;2023-09-08T00:41:05;101743.06;;;20.01;60.05
51313;BME280;37397;53.226;10.400;2023-09-08T00:43:31;101735.16;;;19.96;60.07
51313;BME280;37397;53.226;10.400;2023-09-08T00:45:58;101735.16;;;19.96;60.11
51313;BME280;37397;53.226;10.400;2023-09-08T00:48:26;101729.38;;;19.91;60.18
51313;BME280;37397;53.226;10.400;2023-09-08T00:50:52;101729.88;;;19.89;60.26
51313;BME280;37397;53.226;10.400;2023-09-08T00:53:19;101728.03;;;19.86;60.06
51313;BME280;37397;53.226;10.400;2023-09-08T00:55:47;101719.34;;;19.86;60.12
51313;BME280;37397;53.226;10.400;2023-09-08T00:58:14;101723.81;;;19.81;60.27
51313;BME280;37397;53.226;10.400;2023-09-08T01:00:41;101717.25;;;19.81;60.53
51313;BME280;37397;53.226;10.400;2023-09-08T01:03:08;101715.94;;;19.76;60.26
51313;BME280;37397;53.226;10.400;2023-09-08T01:05:34;101720.94;;;19.76;60.61
51313;BME280;37397;53.226;10.400;2023-09-08T01:08:02;101726.41;;;19.74;60.52
51313;BME280;37397;53.226;10.400;2023-09-08T01:10:29;101712.47;;;19.72;60.36
51313;BME280;37397;53.226;10.400;2023-09-08T01:12:56;101717.22;;;19.70;60.15
51313;BME280;37397;53.226;10.400;2023-09-08T01:15:22;101719.84;;;19.67;60.56
51313;BME280;37397;53.226;10.400;2023-09-08T01:17:49;101724.06;;;19.66;60.48
51313;BME280;37397;53.226;10.400;2023-09-08T01:20:19;101719.31;;;19.63;60.55
51313;BME280;37397;53.226;10.400;2023-09-08T01:25:26;101718.50;;;19.57;60.34
51313;BME280;37397;53.226;10.400;2023-09-08T01:27:56;101713.22;;;19.56;60.69
51313;BME280;37397;53.226;10.400;2023-09-08T01:30:25;101710.06;;;19.54;60.55
51313;BME280;37397;53.226;10.400;2023-09-08T01:32:54;101708.75;;;19.49;60.54
51313;BME280;37397;53.226;10.400;2023-09-08T01:35:21;101705.06;;;19.48;60.65
51313;BME280;37397;53.226;10.400;2023-09-08T01:37:49;101705.59;;;19.47;60.53
51313;BME280;37397;53.226;10.400;2023-09-08T01:40:16;101706.63;;;19.44;60.79
51313;BME280;37397;53.226;10.400;2023-09-08T01:42:42;101708.47;;;19.41;60.61
51313;BME280;37397;53.226;10.400;2023-09-08T01:45:09;101706.09;;;19.40;60.73
51313;BME280;37397;53.226;10.400;2023-09-08T01:47:36;101696.88;;;19.36;60.66
51313;BME280;37397;53.226;10.400;2023-09-08T01:50:03;101707.13;;;19.37;60.69
51313;BME280;37397;53.226;10.400;2023-09-08T01:52:30;101706.88;;;19.35;60.89
51313;BME280;37397;53.226;10.400;2023-09-08T01:54:56;101703.72;;;19.33;61.25
51313;BME280;37397;53.226;10.400;2023-09-08T01:57:23;101696.09;;;19.29;61.05
51313;BME280;37397;53.226;10.400;2023-09-08T01:59:49;101697.13;;;19.26;61.11
51313;BME280;37397;53.226;10.400;2023-09-08T02:02:16;101693.97;;;19.24;61.24
51313;BME280;37397;53.226;10.400;2023-09-08T02:04:42;101690.78;;;19.22;60.95
51313;BME280;37397;53.226;10.400;2023-09-08T02:07:09;101681.84;;;19.20;61.08
51313;BME280;37397;53.226;10.400;2023-09-08T02:09:37;101675.53;;;19.16;61.06
51313;BME280;37397;53.226;10.400;2023-09-08T02:12:04;101682.88;;;19.17;61.24
51313;BME280;37397;53.226;10.400;2023-09-08T02:14:30;101675.00;;;19.12;61.45
51313;BME280;37397;53.226;10.400;2023-09-08T02:16:57;101669.72;;;19.10;61.17
51313;BME280;37397;53.226;10.400;2023-09-08T02:19:24;101658.94;;;19.11;61.36
51313;BME280;37397;53.226;10.400;2023-09-08T02:21:50;101666.56;;;19.08;61.22
51313;BME280;37397;53.226;10.400;2023-09-08T02:24:17;101667.09;;;19.07;61.14
51313;BME280;37397;53.226;10.400;2023-09-08T02:26:44;101658.16;;;19.05;61.19
51313;BME280;37397;53.226;10.400;2023-09-08T02:29:12;101657.84;;;19.03;61.38
51313;BME280;37397;53.226;10.400;2023-09-08T02:31:38;101657.59;;;19.01;61.42
51313;BME280;37397;53.226;10.400;2023-09-08T02:34:06;101654.44;;;18.99;61.40
51313;BME280;37397;53.226;10.400;2023-09-08T02:36:32;101642.84;;;18.93;61.47
51313;BME280;37397;53.226;10.400;2023-09-08T02:38:59;101649.69;;;18.95;61.45
51313;BME280;37397;53.226;10.400;2023-09-08T02:41:27;101641.78;;;18.90;61.54
51313;BME280;37397;53.226;10.400;2023-09-08T02:43:53;101647.59;;;18.90;61.26
51313;BME280;37397;53.226;10.400;2023-09-08T02:46:20;101646.00;;;18.89;61.70
51313;BME280;37397;53.226;10.400;2023-09-08T02:48:47;101637.56;;;18.86;61.60
51313;BME280;37397;53.226;10.400;2023-09-08T02:51:13;101644.66;;;18.85;61.67
51313;BME280;37397;53.226;10.400;2023-09-08T02:53:40;101649.88;;;18.81;61.78
51313;BME280;37397;53.226;10.400;2023-09-08T02:56:07;101644.88;;;18.81;61.49
51313;BME280;37397;53.226;10.400;2023-09-08T02:58:35;101650.41;;;18.79;61.84
51313;BME280;37397;53.226;10.400;2023-09-08T03:01:16;101653.00;;;18.77;61.48
51313;BME280;37397;53.226;10.400;2023-09-08T03:03:47;101655.63;;;18.75;61.57
51313;BME280;37397;53.226;10.400;2023-09-08T03:06:19;101664.03;;;18.73;61.49
51313;BME280;37397;53.226;10.400;2023-09-08T03:08:47;101653.00;;;18.71;61.64
51313;BME280;37397;53.226;10.400;2023-09-08T03:11:13;101658.00;;;18.71;61.74
51313;BME280;37397;53.226;10.400;2023-09-08T03:13:40;101659.81;;;18.68;61.73
51313;BME280;37397;53.226;10.400;2023-09-08T03:16:08;101658.47;;;18.64;61.81
51313;BME280;37397;53.226;10.400;2023-09-08T03:18:36;101662.16;;;18.64;61.62
51313;BME280;37397;53.226;10.400;2023-09-08T03:21:04;101658.47;;;18.64;61.81
51313;BME280;37397;53.226;10.400;2023-09-08T03:23:41;101662.66;;;18.57;61.81
51313;BME280;37397;53.226;10.400;2023-09-08T03:26:09;101650.56;;;18.58;61.77
51313;BME280;37397;53.226;10.400;2023-09-08T03:28:37;101650.03;;;18.54;61.62
51313;BME280;37397;53.226;10.400;2023-09-08T03:31:05;101650.81;;;18.55;61.95
51313;BME280;37397;53.226;10.400;2023-09-08T03:33:33;101651.84;;;18.52;61.91
51313;BME280;37397;53.226;10.400;2023-09-08T03:36:01;101656.56;;;18.49;61.94
51313;BME280;37397;53.226;10.400;2023-09-08T03:38:29;101644.75;;;18.47;62.03
51313;BME280;37397;53.226;10.400;2023-09-08T03:40:56;101658.41;;;18.47;61.75
51313;BME280;37397;53.226;10.400;2023-09-08T03:43:23;101649.44;;;18.45;62.18
51313;BME280;37397;53.226;10.400;2023-09-08T03:45:50;101648.41;;;18.42;61.98
51313;BME280;37397;53.226;10.400;2023-09-08T03:48:16;101649.69;;;18.41;62.08
51313;BME280;37397;53.226;10.400;2023-09-08T03:50:44;101653.09;;;18.39;61.89
51313;BME280;37397;53.226;10.400;2023-09-08T03:53:13;101659.41;;;18.38;62.03
51313;BME280;37397;53.226;10.400;2023-09-08T03:55:40;101657.03;;;18.36;62.20
51313;BME280;37397;53.226;10.400;2023-09-08T03:58:06;101657.53;;;18.35;61.94
51313;BME280;37397;53.226;10.400;2023-09-08T04:00:33;101658.56;;;18.32;62.30
51313;BME280;37397;53.226;10.400;2023-09-08T04:03:00;101654.63;;;18.29;62.49
51313;BME280;37397;53.226;10.400;2023-09-08T04:05:28;101649.38;;;18.28;62.25
51313;BME280;37397;53.226;10.400;2023-09-08T04:07:54;101648.81;;;18.23;62.14
51313;BME280;37397;53.226;10.400;2023-09-08T04:10:21;101650.41;;;18.25;62.02
51313;BME280;37397;53.226;10.400;2023-09-08T04:12:47;101646.94;;;18.20;62.13
51313;BME280;37397;53.226;10.400;2023-09-08T04:15:14;101644.06;;;18.20;62.13
51313;BME280;37397;53.226;10.400;2023-09-08T04:17:41;101641.69;;;18.19;62.05
51313;BME280;37397;53.226;10.400;2023-09-08T04:20:08;101638.25;;;18.15;62.38
51313;BME280;37397;53.226;10.400;2023-09-08T04:22:35;101640.34;;;18.14;62.42
51313;BME280;37397;53.226;10.400;2023-09-08T04:25:02;101643.22;;;18.14;62.49
51313;BME280;37397;53.226;10.400;2023-09-08T04:27:28;101643.97;;;18.09;62.38
51313;BME280;37397;53.226;10.400;2023-09-08T04:29:55;101638.22;;;18.09;62.13
51313;BME280;37397;53.226;10.400;2023-09-08T04:32:22;101638.44;;;18.06;62.01
51313;BME280;37397;53.226;10.400;2023-09-08T04:34:48;101645.00;;;18.06;62.42
51313;BME280;37397;53.226;10.400;2023-09-08T04:37:16;101637.38;;;18.03;62.26
51313;BME280;37397;53.226;10.400;2023-09-08T04:39:43;101637.09;;;18.01;62.38
51313;BME280;37397;53.226;10.400;2023-09-08T04:42:12;101635.50;;;18.00;62.45
51313;BME280;37397;53.226;10.400;2023-09-08T04:44:40;101633.38;;;17.95;62.45
51313;BME280;37397;53.226;10.400;2023-09-08T04:47:07;101633.13;;;17.93;62.56
51313;BME280;37397;53.226;10.400;2023-09-08T04:49:35;101634.41;;;17.92;62.22
51313;BME280;37397;53.226;10.400;2023-09-08T04:52:01;101634.13;;;17.90;62.15
51313;BME280;37397;53.226;10.400;2023-09-08T04:54:29;101633.06;;;17.87;62.17
51313;BME280;37397;53.226;10.400;2023-09-08T04:56:56;101626.97;;;17.85;62.41
51313;BME280;37397;53.226;10.400;2023-09-08T04:59:42;101630.13;;;17.81;62.27
51313;BME280;37397;53.226;10.400;2023-09-08T05:02:09;101630.38;;;17.83;62.48
51313;BME280;37397;53.226;10.400;2023-09-08T05:04:35;101640.38;;;17.82;62.24
51313;BME280;37397;53.226;10.400;2023-09-08T05:07:03;101630.34;;;17.78;62.26
51313;BME280;37397;53.226;10.400;2023-09-08T05:09:29;101636.13;;;17.78;62.25
51313;BME280;37397;53.226;10.400;2023-09-08T05:11:56;101631.66;;;17.77;62.39
51313;BME280;37397;53.226;10.400;2023-09-08T05:14:22;101629.28;;;17.75;62.46
51313;BME280;37397;53.226;10.400;2023-09-08T05:16:51;101630.59;;;17.74;62.57
51313;BME280;37397;53.226;10.400;2023-09-08T05:19:25;101636.88;;;17.73;62.35
51313;BME280;37397;53.226;10.400;2023-09-08T05:21:53;101635.81;;;17.70;62.23
51313;BME280;37397;53.226;10.400;2023-09-08T05:24:20;101643.16;;;17.71;62.40
51313;BME280;37397;53.226;10.400;2023-09-08T05:26:47;101635.81;;;17.70;62.57
51313;BME280;37397;53.226;10.400;2023-09-08T05:29:14;101635.22;;;17.66;62.82
51313;BME280;37397;53.226;10.400;2023-09-08T05:31:41;101627.06;;;17.64;62.85
51313;BME280;37397;53.226;10.400;2023-09-08T05:34:09;101631.06;;;17.67;62.85
51313;BME280;37397;53.226;10.400;2023-09-08T05:36:37;101619.75;;;17.63;62.63
51313;BME280;37397;53.226;10.400;2023-09-08T05:39:09;101624.50;;;17.66;62.90
51313;BME280;37397;53.226;10.400;2023-09-08T05:41:36;101623.69;;;17.66;62.91
51313;BME280;37397;53.226;10.400;2023-09-08T05:44:04;101623.13;;;17.62;62.71
51313;BME280;37397;53.226;10.400;2023-09-08T05:46:31;101620.53;;;17.64;62.81
51313;BME280;37397;53.226;10.400;2023-09-08T05:48:57;101624.16;;;17.59;63.13
51313;BME280;37397;53.226;10.400;2023-09-08T05:51:24;101624.16;;;17.59;62.88
51313;BME280;37397;53.226;10.400;2023-09-08T05:53:53;101630.50;;;17.63;62.98
51313;BME280;37397;53.226;10.400;2023-09-08T05:56:20;101612.63;;;17.59;63.12
51313;BME280;37397;53.226;10.400;2023-09-08T05:58:48;101616.78;;;17.58;63.02
51313;BME280;37397;53.226;10.400;2023-09-08T06:01:15;101613.41;;;17.59;63.22
51313;BME280;37397;53.226;10.400;2023-09-08T06:03:42;101616.00;;;17.57;62.94
51313;BME280;37397;53.226;10.400;2023-09-08T06:06:10;101615.78;;;17.61;62.85
51313;BME280;37397;53.226;10.400;2023-09-08T06:08:37;101615.78;;;17.61;63.42
51313;BME280;37397;53.226;10.400;2023-09-08T06:11:04;101619.97;;;17.60;63.37
51313;BME280;37397;53.226;10.400;2023-09-08T06:13:33;101618.13;;;17.57;63.13
51313;BME280;37397;53.226;10.400;2023-09-08T06:16:00;101613.41;;;17.59;63.19
51313;BME280;37397;53.226;10.400;2023-09-08T06:18:28;101621.53;;;17.61;63.69
51313;BME280;37397;53.226;10.400;2023-09-08T06:20:56;101619.97;;;17.60;63.58
51313;BME280;37397;53.226;10.400;2023-09-08T06:23:23;101611.03;;;17.58;63.74
51313;BME280;37397;53.226;10.400;2023-09-08T06:25:56;101615.78;;;17.61;63.55
51313;BME280;37397;53.226;10.400;2023-09-08T06:28:28;101610.00;;;17.61;63.72
51313;BME280;37397;53.226;10.400;2023-09-08T06:30:55;101607.63;;;17.59;63.68
51313;BME280;37397;53.226;10.400;2023-09-08T06:33:22;101613.19;;;17.63;63.89
51313;BME280;37397;53.226;10.400;2023-09-08T06:35:49;101619.22;;;17.65;63.86
51313;BME280;37397;53.226;10.400;2023-09-08T06:38:16;101608.44;;;17.60;63.77
51313;BME280;37397;53.226;10.400;2023-09-08T06:40:43;101615.31;;;17.68;63.88
51313;BME280;37397;53.226;10.400;2023-09-08T06:43:10;101607.94;;;17.67;63.98
51313;BME280;37397;53.226;10.400;2023-09-08T06:45:47;101617.69;;;17.70;64.24
51313;BME280;37397;53.226;10.400;2023-09-08T06:48:16;101625.84;;;17.71;64.25
51313;BME280;37397;53.226;10.400;2023-09-08T06:50:42;101618.22;;;17.68;64.25
51313;BME280;37397;53.226;10.400;2023-09-08T06:53:09;101631.38;;;17.75;64.45
51313;BME280;37397;53.226;10.400;2023-09-08T06:55:38;101628.75;;;17.77;64.63
51313;BME280;37397;53.226;10.400;2023-09-08T06:58:11;101627.97;;;17.76;64.51
51313;BME280;37397;53.226;10.400;2023-09-08T07:00:38;101619.59;;;17.78;64.93
51313;BME280;37397;53.226;10.400;2023-09-08T07:03:06;101612.00;;;17.81;65.04
51313;BME280;37397;53.226;10.400;2023-09-08T07:05:35;101624.91;;;17.85;65.18
51313;BME280;37397;53.226;10.400;2023-09-08T07:08:03;101611.25;;;17.86;65.40
51313;BME280;37397;53.226;10.400;2023-09-08T07:10:32;101612.63;;;17.91;65.30
51313;BME280;37397;53.226;10.400;2023-09-08T07:12:59;101609.75;;;17.91;65.61
51313;BME280;37397;53.226;10.400;2023-09-08T07:15:26;101604.47;;;17.89;65.69
51313;BME280;37397;53.226;10.400;2023-09-08T07:17:52;101607.69;;;17.97;65.97
51313;BME280;37397;53.226;10.400;2023-09-08T07:20:19;101622.16;;;18.02;65.96
51313;BME280;37397;53.226;10.400;2023-09-08T07:22:46;101615.59;;;18.02;66.28
51313;BME280;37397;53.226;10.400;2023-09-08T07:25:13;101625.88;;;18.09;66.34
51313;BME280;37397;53.226;10.400;2023-09-08T07:27:40;101617.72;;;18.07;66.53
51313;BME280;37397;53.226;10.400;2023-09-08T07:30:08;101621.44;;;18.13;66.64
51313;BME280;37397;53.226;10.400;2023-09-08T07:32:35;101615.66;;;18.13;66.34
51313;BME280;37397;53.226;10.400;2023-09-08T07:35:02;101625.16;;;18.19;66.39
51313;BME280;37397;53.226;10.400;2023-09-08T07:37:28;101623.03;;;18.20;66.64
51313;BME280;37397;53.226;10.400;2023-09-08T07:39:55;101629.66;;;18.26;66.57
51313;BME280;37397;53.226;10.400;2023-09-08T07:42:22;101627.81;;;18.29;66.79
51313;BME280;37397;53.226;10.400;2023-09-08T07:44:50;101622.59;;;18.33;67.02
51313;BME280;37397;53.226;10.400;2023-09-08T07:47:16;101636.00;;;18.36;66.89
51313;BME280;37397;53.226;10.400;2023-09-08T07:49:45;101630.75;;;18.40;67.21
51313;BME280;37397;53.226;10.400;2023-09-08T07:52:13;101632.63;;;18.43;67.00
51313;BME280;37397;53.226;10.400;2023-09-08T07:54:42;101624.47;;;18.41;67.29
51313;BME280;37397;53.226;10.400;2023-09-08T07:57:09;101628.69;;;18.46;67.22
51313;BME280;37397;53.226;10.400;2023-09-08T07:59:35;101625.56;;;18.50;67.34
51313;BME280;37397;53.226;10.400;2023-09-08T08:02:03;101628.22;;;18.53;67.27
51313;BME280;37397;53.226;10.400;2023-09-08T08:04:30;101621.41;;;18.56;67.73
51313;BME280;37397;53.226;10.400;2023-09-08T08:06:57;101624.03;;;18.60;67.32
51313;BME280;37397;53.226;10.400;2023-09-08T08:09:24;101624.03;;;18.66;67.86
51313;BME280;37397;53.226;10.400;2023-09-08T08:11:51;101614.06;;;18.67;67.90
51313;BME280;37397;53.226;10.400;2023-09-08T08:14:18;101616.19;;;18.72;68.01
51313;BME280;37397;53.226;10.400;2023-09-08T08:16:44;101609.09;;;18.73;68.00
51313;BME280;37397;53.226;10.400;2023-09-08T08:19:11;101610.44;;;18.77;67.73
51313;BME280;37397;53.226;10.400;2023-09-08T08:21:38;101611.78;;;18.82;67.73
51313;BME280;37397;53.226;10.400;2023-09-08T08:24:05;101610.75;;;18.85;67.97
51313;BME280;37397;53.226;10.400;2023-09-08T08:26:33;101610.75;;;18.85;68.21
51313;BME280;37397;53.226;10.400;2023-09-08T08:29:00;101607.09;;;18.90;68.05
51313;BME280;37397;53.226;10.400;2023-09-08T08:31:26;101603.16;;;18.93;67.75
51313;BME280;37397;53.226;10.400;2023-09-08T08:33:53;101609.72;;;19.00;67.87
51313;BME280;37397;53.226;10.400;2023-09-08T08:36:20;101586.06;;;18.95;67.86
51313;BME280;37397;53.226;10.400;2023-09-08T08:38:46;101602.13;;;19.08;68.08
51313;BME280;37397;53.226;10.400;2023-09-08T08:41:13;101600.53;;;19.12;67.79
51313;BME280;37397;53.226;10.400;2023-09-08T08:43:40;101600.00;;;19.14;68.07
51313;BME280;37397;53.226;10.400;2023-09-08T08:46:07;101596.06;;;19.17;67.79
51313;BME280;37397;53.226;10.400;2023-09-08T08:48:35;101586.34;;;19.20;67.92
51313;BME280;37397;53.226;10.400;2023-09-08T08:51:04;101597.94;;;19.26;68.14
51313;BME280;37397;53.226;10.400;2023-09-08T08:53:32;101596.38;;;19.30;67.63
51313;BME280;37397;53.226;10.400;2023-09-08T08:56:00;101599.78;;;19.35;67.66
51313;BME280;37397;53.226;10.400;2023-09-08T08:58:28;101601.88;;;19.40;67.66
51313;BME280;37397;53.226;10.400;2023-09-08T09:00:55;101595.06;;;19.43;67.71
51313;BME280;37397;53.226;10.400;2023-09-08T09:03:26;101601.38;;;19.47;67.70
51313;BME280;37397;53.226;10.400;2023-09-08T09:05:53;101596.63;;;19.49;67.86
51313;BME280;37397;53.226;10.400;2023-09-08T09:08:20;101593.50;;;19.53;67.74
51313;BME280;37397;53.226;10.400;2023-09-08T09:10:48;101594.81;;;19.58;67.90
51313;BME280;37397;53.226;10.400;2023-09-08T09:13:15;101595.03;;;19.65;67.82
51313;BME280;37397;53.226;10.400;2023-09-08T09:15:42;101592.69;;;19.70;67.78
51313;BME280;37397;53.226;10.400;2023-09-08T09:18:09;101588.72;;;19.73;67.69
51313;BME280;37397;53.226;10.400;2023-09-08T09:20:36;101595.06;;;19.77;67.80
51313;BME280;37397;53.226;10.400;2023-09-08T09:23:02;101590.31;;;19.79;67.74
51313;BME280;37397;53.226;10.400;2023-09-08T09:25:31;101587.16;;;19.83;67.82
51313;BME280;37397;53.226;10.400;2023-09-08T09:28:02;101592.16;;;19.88;67.73
51313;BME280;37397;53.226;10.400;2023-09-08T09:30:46;101587.94;;;19.89;67.81
51313;BME280;37397;53.226;10.400;2023-09-08T09:33:14;101594.25;;;19.99;67.65
51313;BME280;37397;53.226;10.400;2023-09-08T09:35:42;101578.16;;;20.03;67.50
51313;BME280;37397;53.226;10.400;2023-09-08T09:38:08;101582.91;;;20.07;67.55
51313;BME280;37397;53.226;10.400;2023-09-08T09:40:36;101583.69;;;20.13;67.54
51313;BME280;37397;53.226;10.400;2023-09-08T09:43:04;101588.13;;;20.14;67.32
51313;BME280;37397;53.226;10.400;2023-09-08T09:45:35;101579.97;;;20.18;67.63
51313;BME280;37397;53.226;10.400;2023-09-08T09:48:03;101581.53;;;20.25;67.45
51313;BME280;37397;53.226;10.400;2023-09-08T09:50:32;101581.00;;;20.26;67.66
51313;BME280;37397;53.226;10.400;2023-09-08T09:53:03;101584.91;;;20.34;67.66
51313;BME280;37397;53.226;10.400;2023-09-08T09:55:33;101579.66;;;20.38;67.56
51313;BME280;37397;53.226;10.400;2023-09-08T09:58:02;101575.16;;;20.43;67.53
51313;BME280;37397;53.226;10.400;2023-09-08T10:00:31;101584.88;;;20.46;67.16
51313;BME280;37397;53.226;10.400;2023-09-08T10:03:00;101583.03;;;20.48;67.34
51313;BME280;37397;53.226;10.400;2023-09-08T10:05:27;101580.09;;;20.54;67.51
51313;BME280;37397;53.226;10.400;2023-09-08T10:07:54;101586.66;;;20.60;67.36
51313;BME280;37397;53.226;10.400;2023-09-08T10:10:22;101585.88;;;20.65;67.30
51313;BME280;37397;53.226;10.400;2023-09-08T10:12:54;101588.50;;;20.69;67.34
51313;BME280;37397;53.226;10.400;2023-09-08T10:15:23;101581.06;;;20.73;67.19
51313;BME280;37397;53.226;10.400;2023-09-08T10:17:55;101587.38;;;20.77;67.07
51313;BME280;37397;53.226;10.400;2023-09-08T10:20:26;101571.56;;;20.79;66.98
51313;BME280;37397;53.226;10.400;2023-09-08T10:23:07;101583.91;;;20.85;66.90
51313;BME280;37397;53.226;10.400;2023-09-08T10:25:42;101584.66;;;20.91;66.75
51313;BME280;37397;53.226;10.400;2023-09-08T10:28:10;101578.88;;;20.91;66.46
51313;BME280;37397;53.226;10.400;2023-09-08T10:30:36;101571.44;;;20.95;66.76
51313;BME280;37397;53.226;10.400;2023-09-08T10:33:04;101574.56;;;21.03;66.78
51313;BME280;37397;53.226;10.400;2023-09-08T10:35:32;101568.47;;;21.07;66.64
51313;BME280;37397;53.226;10.400;2023-09-08T10:38:25;101571.06;;;21.10;66.50
51313;BME280;37397;53.226;10.400;2023-09-08T10:40:53;101561.56;;;21.16;66.47
51313;BME280;37397;53.226;10.400;2023-09-08T10:43:20;101559.16;;;21.20;66.51
51313;BME280;37397;53.226;10.400;2023-09-08T10:45:47;101555.41;;;21.25;66.48
51313;BME280;37397;53.226;10.400;2023-09-08T10:48:14;101551.41;;;21.28;66.41
51313;BME280;37397;53.226;10.400;2023-09-08T10:50:42;101541.63;;;21.31;66.24
51313;BME280;37397;53.226;10.400;2023-09-08T10:53:13;101555.31;;;21.36;66.27
51313;BME280;37397;53.226;10.400;2023-09-08T10:55:42;101550.00;;;21.40;66.01
51313;BME280;37397;53.226;10.400;2023-09-08T10:58:10;101543.91;;;21.44;66.03
51313;BME280;37397;53.226;10.400;2023-09-08T11:00:45;101535.72;;;21.48;65.72
51313;BME280;37397;53.226;10.400;2023-09-08T11:03:13;101535.66;;;21.54;65.89
51313;BME280;37397;53.226;10.400;2023-09-08T11:05:41;101540.38;;;21.57;65.69
51313;BME280;37397;53.226;10.400;2023-09-08T11:08:08;101539.53;;;21.62;65.43
51313;BME280;37397;53.226;10.400;2023-09-08T11:10:35;101545.84;;;21.66;65.58
51313;BME280;37397;53.226;10.400;2023-09-08T11:13:04;101533.13;;;21.69;65.49
51313;BME280;37397;53.226;10.400;2023-09-08T11:15:31;101538.09;;;21.74;65.19
51313;BME280;37397;53.226;10.400;2023-09-08T11:18:04;101537.78;;;21.78;64.94
51313;BME280;37397;53.226;10.400;2023-09-08T11:20:31;101538.28;;;21.82;64.96
51313;BME280;37397;53.226;10.400;2023-09-08T11:22:58;101530.59;;;21.84;64.78
51313;BME280;37397;53.226;10.400;2023-09-08T11:25:25;101536.34;;;21.90;64.65
51313;BME280;37397;53.226;10.400;2023-09-08T11:27:52;101523.41;;;21.91;64.53
51313;BME280;37397;53.226;10.400;2023-09-08T11:30:19;101526.22;;;21.97;64.19
51313;BME280;37397;53.226;10.400;2023-09-08T11:32:45;101526.72;;;22.01;64.27
51313;BME280;37397;53.226;10.400;2023-09-08T11:35:12;101518.69;;;22.07;64.06
51313;BME280;37397;53.226;10.400;2023-09-08T11:37:40;101522.09;;;22.11;63.97
51313;BME280;37397;53.226;10.400;2023-09-08T11:40:09;101519.69;;;22.15;63.69
51313;BME280;37397;53.226;10.400;2023-09-08T11:42:41;101515.66;;;22.18;63.54
51313;BME280;37397;53.226;10.400;2023-09-08T11:45:15;101507.72;;;22.19;63.41
51313;BME280;37397;53.226;10.400;2023-09-08T11:47:52;101514.28;;;22.25;63.29
51313;BME280;37397;53.226;10.400;2023-09-08T11:50:19;101516.84;;;22.29;62.83
51313;BME280;37397;53.226;10.400;2023-09-08T11:52:47;101506.53;;;22.33;62.88
51313;BME280;37397;53.226;10.400;2023-09-08T11:55:15;101510.44;;;22.36;62.59
51313;BME280;37397;53.226;10.400;2023-09-08T11:57:42;101515.38;;;22.41;62.24
51313;BME280;37397;53.226;10.400;2023-09-08T12:00:11;101501.66;;;22.42;62.59
51313;BME280;37397;53.226;10.400;2023-09-08T12:02:43;101511.88;;;22.48;62.16
51313;BME280;37397;53.226;10.400;2023-09-08T12:05:14;101504.94;;;22.51;62.34
51313;BME280;37397;53.226;10.400;2023-09-08T12:07:46;101508.88;;;22.54;62.03
51313;BME280;37397;53.226;10.400;2023-09-08T12:10:13;101504.06;;;22.56;62.22
51313;BME280;37397;53.226;10.400;2023-09-08T12:12:51;101507.22;;;22.58;61.97
51313;BME280;37397;53.226;10.400;2023-09-08T12:15:39;101500.28;;;22.62;62.04
51313;BME280;37397;53.226;10.400;2023-09-08T12:18:13;101485.19;;;22.63;61.92
51313;BME280;37397;53.226;10.400;2023-09-08T12:20:43;101499.13;;;22.70;62.00
51313;BME280;37397;53.226;10.400;2023-09-08T12:23:34;101495.66;;;22.72;61.61
51313;BME280;37397;53.226;10.400;2023-09-08T12:26:13;101493.44;;;22.78;61.95
51313;BME280;37397;53.226;10.400;2023-09-08T12:28:39;101489.19;;;22.79;61.87
51313;BME280;37397;53.226;10.400;2023-09-08T12:31:06;101499.72;;;22.82;61.84
51313;BME280;37397;53.226;10.400;2023-09-08T12:33:36;101493.59;;;22.86;62.00
51313;BME280;37397;53.226;10.400;2023-09-08T12:36:21;101493.59;;;22.86;61.84
51313;BME280;37397;53.226;10.400;2023-09-08T12:38:51;101487.47;;;22.89;62.21
51313;BME280;37397;53.226;10.400;2023-09-08T12:41:19;101488.13;;;22.95;62.07
51313;BME280;37397;53.226;10.400;2023-09-08T12:43:55;101489.94;;;22.99;62.16
51313;BME280;37397;53.226;10.400;2023-09-08T12:46:42;101483.00;;;23.02;61.94
51313;BME280;37397;53.226;10.400;2023-09-08T12:49:10;101465.09;;;22.98;61.93